Wallace, West Virginia
Current Conditions -  °F | °C
As of 4:53 AM on Monday 22 Dec 2014 (Local Time) from KCKB Reporting Station
Unknown Precip Unknown Precip  
Wind Chill: 24°   Ceiling: Unl
Heat Index: 24°   Visibility: 7mi
Dew Point: 22°   Wind: 0mph
Humidity: 91%   Direction: NA
Pressure: 30.09"   Gusts: NA
Location:  39.41°N, 80.49°W
Report Text: KCKB 220953Z AUTO 00000KT 7SM UP CLR M04/M06 A3009 RMK AO2 UPB42 SLP198 P0000 T10441056 TSNO
Loading
Personal Weather Stations






























Interactive Weather Map New forecast layout! Learn more

10-Day Weather Forecast

Advertisements
Track Severe Weather on mobile